sensor_id;sensor_type;location;lat;lon;timestamp;P1;durP1;ratioP1;P2;durP2;ratioP2
42000;SDS011;27689;48.390;10.856;2022-10-16T00:00:55;5.95;;;3.45;;
42000;SDS011;27689;48.390;10.856;2022-10-16T00:03:39;6.43;;;3.30;;
42000;SDS011;27689;48.390;10.856;2022-10-16T00:06:25;9.63;;;3.80;;
42000;SDS011;27689;48.390;10.856;2022-10-16T00:09:10;5.75;;;3.55;;
42000;SDS011;27689;48.390;10.856;2022-10-16T00:11:54;5.88;;;3.10;;
42000;SDS011;27689;48.390;10.856;2022-10-16T00:14:38;6.50;;;3.67;;
42000;SDS011;27689;48.390;10.856;2022-10-16T00:17:25;5.25;;;3.42;;
42000;SDS011;27689;48.390;10.856;2022-10-16T00:20:09;6.03;;;3.80;;
42000;SDS011;27689;48.390;10.856;2022-10-16T00:22:53;9.10;;;3.80;;
42000;SDS011;27689;48.390;10.856;2022-10-16T00:25:37;4.95;;;3.63;;
42000;SDS011;27689;48.390;10.856;2022-10-16T00:28:21;4.15;;;3.13;;
42000;SDS011;27689;48.390;10.856;2022-10-16T00:31:05;6.15;;;3.40;;
42000;SDS011;27689;48.390;10.856;2022-10-16T00:33:51;5.68;;;3.25;;
42000;SDS011;27689;48.390;10.856;2022-10-16T00:36:35;6.22;;;3.10;;
42000;SDS011;27689;48.390;10.856;2022-10-16T00:39:19;3.70;;;2.75;;
42000;SDS011;27689;48.390;10.856;2022-10-16T00:42:03;5.50;;;2.90;;
42000;SDS011;27689;48.390;10.856;2022-10-16T00:44:51;5.88;;;2.40;;
42000;SDS011;27689;48.390;10.856;2022-10-16T00:47:39;4.50;;;2.60;;
42000;SDS011;27689;48.390;10.856;2022-10-16T00:53:18;3.75;;;2.47;;
42000;SDS011;27689;48.390;10.856;2022-10-16T00:56:02;5.38;;;3.10;;
42000;SDS011;27689;48.390;10.856;2022-10-16T00:58:47;4.90;;;3.28;;
42000;SDS011;27689;48.390;10.856;2022-10-16T01:01:30;7.95;;;3.95;;
42000;SDS011;27689;48.390;10.856;2022-10-16T01:04:14;6.13;;;3.40;;
42000;SDS011;27689;48.390;10.856;2022-10-16T01:13:05;5.85;;;3.28;;
42000;SDS011;27689;48.390;10.856;2022-10-16T01:16:12;4.97;;;3.40;;
42000;SDS011;27689;48.390;10.856;2022-10-16T01:19:09;6.78;;;3.25;;
42000;SDS011;27689;48.390;10.856;2022-10-16T01:22:15;9.60;;;3.17;;
42000;SDS011;27689;48.390;10.856;2022-10-16T01:25:01;6.57;;;3.40;;
42000;SDS011;27689;48.390;10.856;2022-10-16T01:27:53;4.18;;;2.95;;
42000;SDS011;27689;48.390;10.856;2022-10-16T01:30:37;5.20;;;3.38;;
42000;SDS011;27689;48.390;10.856;2022-10-16T01:33:28;5.88;;;2.90;;
42000;SDS011;27689;48.390;10.856;2022-10-16T01:36:19;5.38;;;2.80;;
42000;SDS011;27689;48.390;10.856;2022-10-16T01:39:08;3.55;;;2.40;;
42000;SDS011;27689;48.390;10.856;2022-10-16T01:41:58;5.85;;;2.63;;
42000;SDS011;27689;48.390;10.856;2022-10-16T01:44:48;3.03;;;2.13;;
42000;SDS011;27689;48.390;10.856;2022-10-16T01:47:34;3.92;;;2.70;;
42000;SDS011;27689;48.390;10.856;2022-10-16T01:53:04;4.75;;;2.63;;
42000;SDS011;27689;48.390;10.856;2022-10-16T01:55:50;3.63;;;2.40;;
42000;SDS011;27689;48.390;10.856;2022-10-16T01:58:39;4.93;;;2.50;;
42000;SDS011;27689;48.390;10.856;2022-10-16T02:01:29;4.25;;;2.80;;
42000;SDS011;27689;48.390;10.856;2022-10-16T02:07:08;3.50;;;2.75;;
42000;SDS011;27689;48.390;10.856;2022-10-16T02:09:53;3.45;;;2.65;;
42000;SDS011;27689;48.390;10.856;2022-10-16T02:15:24;7.18;;;3.03;;
42000;SDS011;27689;48.390;10.856;2022-10-16T02:18:08;5.10;;;2.78;;
42000;SDS011;27689;48.390;10.856;2022-10-16T02:29:37;5.55;;;2.90;;
42000;SDS011;27689;48.390;10.856;2022-10-16T02:32:29;3.58;;;2.58;;
42000;SDS011;27689;48.390;10.856;2022-10-16T02:35:17;6.32;;;2.25;;
42000;SDS011;27689;48.390;10.856;2022-10-16T02:38:03;3.38;;;2.58;;
42000;SDS011;27689;48.390;10.856;2022-10-16T02:43:32;4.68;;;2.55;;
42000;SDS011;27689;48.390;10.856;2022-10-16T02:46:17;6.68;;;3.03;;
42000;SDS011;27689;48.390;10.856;2022-10-16T02:49:02;4.60;;;2.72;;
42000;SDS011;27689;48.390;10.856;2022-10-16T02:51:46;4.07;;;3.20;;
42000;SDS011;27689;48.390;10.856;2022-10-16T02:54:30;7.17;;;3.17;;
42000;SDS011;27689;48.390;10.856;2022-10-16T02:57:14;7.72;;;2.72;;
42000;SDS011;27689;48.390;10.856;2022-10-16T02:59:58;3.47;;;2.58;;
42000;SDS011;27689;48.390;10.856;2022-10-16T03:02:42;3.38;;;2.70;;
42000;SDS011;27689;48.390;10.856;2022-10-16T03:05:27;4.88;;;2.50;;
42000;SDS011;27689;48.390;10.856;2022-10-16T03:08:11;7.22;;;2.30;;
42000;SDS011;27689;48.390;10.856;2022-10-16T03:13:40;7.13;;;2.40;;
42000;SDS011;27689;48.390;10.856;2022-10-16T03:16:24;4.43;;;2.20;;
42000;SDS011;27689;48.390;10.856;2022-10-16T03:19:07;3.67;;;2.17;;
42000;SDS011;27689;48.390;10.856;2022-10-16T03:21:51;2.85;;;2.20;;
42000;SDS011;27689;48.390;10.856;2022-10-16T03:24:35;4.93;;;2.20;;
42000;SDS011;27689;48.390;10.856;2022-10-16T03:27:19;2.50;;;2.10;;
42000;SDS011;27689;48.390;10.856;2022-10-16T03:30:03;5.82;;;2.35;;
42000;SDS011;27689;48.390;10.856;2022-10-16T03:32:48;5.43;;;2.25;;
42000;SDS011;27689;48.390;10.856;2022-10-16T03:35:31;5.63;;;2.35;;
42000;SDS011;27689;48.390;10.856;2022-10-16T03:38:16;2.50;;;1.73;;
42000;SDS011;27689;48.390;10.856;2022-10-16T03:41:00;4.93;;;2.72;;
42000;SDS011;27689;48.390;10.856;2022-10-16T03:43:44;5.47;;;2.83;;
42000;SDS011;27689;48.390;10.856;2022-10-16T03:46:28;4.15;;;2.22;;
42000;SDS011;27689;48.390;10.856;2022-10-16T03:49:13;3.20;;;2.08;;
42000;SDS011;27689;48.390;10.856;2022-10-16T03:51:56;3.08;;;1.70;;
42000;SDS011;27689;48.390;10.856;2022-10-16T03:54:40;2.88;;;1.85;;
42000;SDS011;27689;48.390;10.856;2022-10-16T03:57:24;4.28;;;1.80;;
42000;SDS011;27689;48.390;10.856;2022-10-16T04:00:09;3.17;;;1.85;;
42000;SDS011;27689;48.390;10.856;2022-10-16T04:02:53;2.63;;;1.90;;
42000;SDS011;27689;48.390;10.856;2022-10-16T04:05:37;3.67;;;1.77;;
42000;SDS011;27689;48.390;10.856;2022-10-16T04:11:06;3.28;;;2.20;;
42000;SDS011;27689;48.390;10.856;2022-10-16T04:13:50;3.20;;;1.80;;
42000;SDS011;27689;48.390;10.856;2022-10-16T04:16:34;2.65;;;1.85;;
42000;SDS011;27689;48.390;10.856;2022-10-16T04:19:18;4.78;;;2.17;;
42000;SDS011;27689;48.390;10.856;2022-10-16T04:22:02;3.47;;;1.80;;
42000;SDS011;27689;48.390;10.856;2022-10-16T04:24:46;3.20;;;1.70;;
42000;SDS011;27689;48.390;10.856;2022-10-16T04:27:30;3.40;;;1.80;;
42000;SDS011;27689;48.390;10.856;2022-10-16T04:30:14;2.55;;;1.63;;
42000;SDS011;27689;48.390;10.856;2022-10-16T04:32:58;3.67;;;2.20;;
42000;SDS011;27689;48.390;10.856;2022-10-16T04:35:42;2.60;;;1.80;;
42000;SDS011;27689;48.390;10.856;2022-10-16T04:38:26;5.95;;;1.95;;
42000;SDS011;27689;48.390;10.856;2022-10-16T04:41:10;6.40;;;1.90;;
42000;SDS011;27689;48.390;10.856;2022-10-16T04:43:54;5.13;;;1.90;;
42000;SDS011;27689;48.390;10.856;2022-10-16T04:46:38;3.60;;;1.90;;
42000;SDS011;27689;48.390;10.856;2022-10-16T04:49:22;2.58;;;1.58;;
42000;SDS011;27689;48.390;10.856;2022-10-16T04:52:06;10.20;;;2.08;;
42000;SDS011;27689;48.390;10.856;2022-10-16T04:54:52;3.72;;;1.70;;
42000;SDS011;27689;48.390;10.856;2022-10-16T04:57:36;2.50;;;1.67;;
42000;SDS011;27689;48.390;10.856;2022-10-16T05:00:20;6.13;;;2.10;;
42000;SDS011;27689;48.390;10.856;2022-10-16T05:03:04;3.67;;;1.70;;
42000;SDS011;27689;48.390;10.856;2022-10-16T05:05:51;5.40;;;1.77;;
42000;SDS011;27689;48.390;10.856;2022-10-16T05:08:35;6.63;;;2.50;;
42000;SDS011;27689;48.390;10.856;2022-10-16T05:11:19;2.65;;;1.67;;
42000;SDS011;27689;48.390;10.856;2022-10-16T05:14:02;4.53;;;1.92;;
42000;SDS011;27689;48.390;10.856;2022-10-16T05:16:46;3.40;;;1.80;;
42000;SDS011;27689;48.390;10.856;2022-10-16T05:19:31;4.47;;;2.20;;
42000;SDS011;27689;48.390;10.856;2022-10-16T05:22:15;8.13;;;2.73;;
42000;SDS011;27689;48.390;10.856;2022-10-16T05:24:59;6.22;;;2.25;;
42000;SDS011;27689;48.390;10.856;2022-10-16T05:27:46;3.03;;;2.33;;
42000;SDS011;27689;48.390;10.856;2022-10-16T05:30:31;3.40;;;2.05;;
42000;SDS011;27689;48.390;10.856;2022-10-16T05:33:15;4.20;;;1.80;;
42000;SDS011;27689;48.390;10.856;2022-10-16T05:36:03;6.18;;;2.22;;
42000;SDS011;27689;48.390;10.856;2022-10-16T05:38:52;3.65;;;1.90;;
42000;SDS011;27689;48.390;10.856;2022-10-16T05:41:36;6.22;;;1.98;;
42000;SDS011;27689;48.390;10.856;2022-10-16T05:44:20;8.57;;;2.25;;
42000;SDS011;27689;48.390;10.856;2022-10-16T05:47:04;3.88;;;1.88;;
42000;SDS011;27689;48.390;10.856;2022-10-16T05:49:48;4.82;;;2.10;;
42000;SDS011;27689;48.390;10.856;2022-10-16T05:52:32;5.57;;;2.25;;
42000;SDS011;27689;48.390;10.856;2022-10-16T05:55:16;5.47;;;2.30;;
42000;SDS011;27689;48.390;10.856;2022-10-16T05:58:00;5.78;;;2.83;;
42000;SDS011;27689;48.390;10.856;2022-10-16T06:00:44;4.63;;;1.88;;
42000;SDS011;27689;48.390;10.856;2022-10-16T06:03:28;4.03;;;1.95;;
42000;SDS011;27689;48.390;10.856;2022-10-16T06:06:14;2.40;;;1.83;;
42000;SDS011;27689;48.390;10.856;2022-10-16T06:09:00;3.10;;;2.13;;
42000;SDS011;27689;48.390;10.856;2022-10-16T06:11:44;4.75;;;1.85;;
42000;SDS011;27689;48.390;10.856;2022-10-16T06:14:28;6.95;;;2.30;;
42000;SDS011;27689;48.390;10.856;2022-10-16T06:17:12;3.72;;;2.00;;
42000;SDS011;27689;48.390;10.856;2022-10-16T06:19:57;3.75;;;2.42;;
42000;SDS011;27689;48.390;10.856;2022-10-16T06:22:41;3.40;;;2.28;;
42000;SDS011;27689;48.390;10.856;2022-10-16T06:25:25;2.65;;;2.10;;
42000;SDS011;27689;48.390;10.856;2022-10-16T06:28:09;3.33;;;2.38;;
42000;SDS011;27689;48.390;10.856;2022-10-16T06:30:58;5.80;;;2.27;;
42000;SDS011;27689;48.390;10.856;2022-10-16T06:33:43;2.50;;;1.92;;
42000;SDS011;27689;48.390;10.856;2022-10-16T06:36:29;5.40;;;2.47;;
42000;SDS011;27689;48.390;10.856;2022-10-16T06:39:13;5.25;;;2.25;;
42000;SDS011;27689;48.390;10.856;2022-10-16T06:41:57;5.95;;;2.30;;
42000;SDS011;27689;48.390;10.856;2022-10-16T06:44:41;10.07;;;2.58;;
42000;SDS011;27689;48.390;10.856;2022-10-16T06:47:25;2.90;;;2.13;;
42000;SDS011;27689;48.390;10.856;2022-10-16T06:50:09;3.72;;;1.98;;
42000;SDS011;27689;48.390;10.856;2022-10-16T06:52:53;5.45;;;2.15;;
42000;SDS011;27689;48.390;10.856;2022-10-16T06:55:37;3.78;;;1.83;;
42000;SDS011;27689;48.390;10.856;2022-10-16T06:58:21;3.15;;;1.85;;
42000;SDS011;27689;48.390;10.856;2022-10-16T07:01:05;4.60;;;1.88;;
42000;SDS011;27689;48.390;10.856;2022-10-16T07:03:50;3.42;;;1.83;;
42000;SDS011;27689;48.390;10.856;2022-10-16T07:09:19;5.28;;;1.83;;
42000;SDS011;27689;48.390;10.856;2022-10-16T07:12:03;3.35;;;2.10;;
42000;SDS011;27689;48.390;10.856;2022-10-16T07:14:47;5.55;;;1.98;;
42000;SDS011;27689;48.390;10.856;2022-10-16T07:17:32;3.03;;;1.92;;
42000;SDS011;27689;48.390;10.856;2022-10-16T07:20:15;3.20;;;2.10;;
42000;SDS011;27689;48.390;10.856;2022-10-16T07:23:00;3.78;;;2.05;;
42000;SDS011;27689;48.390;10.856;2022-10-16T07:25:43;3.13;;;1.90;;
42000;SDS011;27689;48.390;10.856;2022-10-16T07:28:28;2.05;;;1.63;;
42000;SDS011;27689;48.390;10.856;2022-10-16T07:31:13;5.22;;;1.83;;
42000;SDS011;27689;48.390;10.856;2022-10-16T07:33:58;2.33;;;1.73;;
42000;SDS011;27689;48.390;10.856;2022-10-16T07:36:43;1.70;;;1.40;;
42000;SDS011;27689;48.390;10.856;2022-10-16T07:39:28;3.90;;;1.60;;
42000;SDS011;27689;48.390;10.856;2022-10-16T07:42:12;3.10;;;1.40;;
42000;SDS011;27689;48.390;10.856;2022-10-16T07:44:56;2.38;;;1.50;;
42000;SDS011;27689;48.390;10.856;2022-10-16T07:47:40;3.10;;;1.45;;
42000;SDS011;27689;48.390;10.856;2022-10-16T07:50:24;2.77;;;1.50;;
42000;SDS011;27689;48.390;10.856;2022-10-16T07:53:08;1.90;;;1.50;;
42000;SDS011;27689;48.390;10.856;2022-10-16T07:58:48;5.70;;;1.67;;
42000;SDS011;27689;48.390;10.856;2022-10-16T08:01:34;2.45;;;1.60;;
42000;SDS011;27689;48.390;10.856;2022-10-16T08:04:18;4.30;;;1.70;;
42000;SDS011;27689;48.390;10.856;2022-10-16T08:07:02;2.53;;;1.38;;
42000;SDS011;27689;48.390;10.856;2022-10-16T08:09:48;4.93;;;1.40;;
42000;SDS011;27689;48.390;10.856;2022-10-16T08:12:33;4.03;;;1.50;;
42000;SDS011;27689;48.390;10.856;2022-10-16T08:15:17;2.03;;;1.40;;
42000;SDS011;27689;48.390;10.856;2022-10-16T08:18:03;4.07;;;1.70;;
42000;SDS011;27689;48.390;10.856;2022-10-16T08:20:54;1.80;;;1.50;;
42000;SDS011;27689;48.390;10.856;2022-10-16T08:23:39;4.88;;;1.70;;
42000;SDS011;27689;48.390;10.856;2022-10-16T08:26:23;4.65;;;1.33;;
42000;SDS011;27689;48.390;10.856;2022-10-16T08:29:07;1.77;;;1.50;;
42000;SDS011;27689;48.390;10.856;2022-10-16T08:31:51;5.75;;;1.80;;
42000;SDS011;27689;48.390;10.856;2022-10-16T08:34:35;3.67;;;1.80;;
42000;SDS011;27689;48.390;10.856;2022-10-16T08:37:20;4.77;;;1.37;;
42000;SDS011;27689;48.390;10.856;2022-10-16T08:40:04;3.50;;;1.50;;
42000;SDS011;27689;48.390;10.856;2022-10-16T08:49:10;3.30;;;1.45;;
42000;SDS011;27689;48.390;10.856;2022-10-16T08:51:59;4.75;;;1.60;;
42000;SDS011;27689;48.390;10.856;2022-10-16T08:54:45;3.25;;;1.40;;
42000;SDS011;27689;48.390;10.856;2022-10-16T08:57:34;3.55;;;1.48;;
42000;SDS011;27689;48.390;10.856;2022-10-16T09:00:18;2.08;;;1.38;;
42000;SDS011;27689;48.390;10.856;2022-10-16T09:03:10;2.15;;;1.20;;
42000;SDS011;27689;48.390;10.856;2022-10-16T09:09:15;3.58;;;1.17;;
42000;SDS011;27689;48.390;10.856;2022-10-16T09:12:14;1.00;;;0.80;;
42000;SDS011;27689;48.390;10.856;2022-10-16T09:18:15;2.10;;;0.93;;
42000;SDS011;27689;48.390;10.856;2022-10-16T09:21:21;2.28;;;0.70;;
42000;SDS011;27689;48.390;10.856;2022-10-16T09:24:12;5.38;;;1.05;;
42000;SDS011;27689;48.390;10.856;2022-10-16T09:26:58;1.67;;;0.77;;
42000;SDS011;27689;48.390;10.856;2022-10-16T09:29:42;3.60;;;1.20;;
42000;SDS011;27689;48.390;10.856;2022-10-16T09:32:26;3.50;;;0.95;;
42000;SDS011;27689;48.390;10.856;2022-10-16T09:35:16;3.65;;;0.77;;
42000;SDS011;27689;48.390;10.856;2022-10-16T09:38:03;1.65;;;0.95;;
42000;SDS011;27689;48.390;10.856;2022-10-16T09:40:47;1.92;;;0.68;;
42000;SDS011;27689;48.390;10.856;2022-10-16T09:43:35;1.92;;;1.10;;
42000;SDS011;27689;48.390;10.856;2022-10-16T09:46:29;0.90;;;0.77;;
42000;SDS011;27689;48.390;10.856;2022-10-16T09:52:12;1.40;;;0.80;;
42000;SDS011;27689;48.390;10.856;2022-10-16T09:55:02;2.40;;;0.80;;
42000;SDS011;27689;48.390;10.856;2022-10-16T09:57:56;5.07;;;0.90;;
42000;SDS011;27689;48.390;10.856;2022-10-16T10:00:41;1.92;;;0.90;;
42000;SDS011;27689;48.390;10.856;2022-10-16T10:06:22;3.17;;;1.00;;
42000;SDS011;27689;48.390;10.856;2022-10-16T10:09:20;1.85;;;0.70;;
42000;SDS011;27689;48.390;10.856;2022-10-16T10:12:14;1.33;;;0.70;;
42000;SDS011;27689;48.390;10.856;2022-10-16T10:15:10;1.35;;;0.75;;
42000;SDS011;27689;48.390;10.856;2022-10-16T10:17:57;2.50;;;0.85;;
42000;SDS011;27689;48.390;10.856;2022-10-16T10:20:41;1.02;;;0.68;;
42000;SDS011;27689;48.390;10.856;2022-10-16T10:23:26;1.20;;;0.90;;
42000;SDS011;27689;48.390;10.856;2022-10-16T10:26:18;1.25;;;0.90;;
42000;SDS011;27689;48.390;10.856;2022-10-16T10:29:17;3.67;;;0.80;;
42000;SDS011;27689;48.390;10.856;2022-10-16T10:41:30;2.38;;;1.02;;
42000;SDS011;27689;48.390;10.856;2022-10-16T10:44:37;1.00;;;0.80;;
42000;SDS011;27689;48.390;10.856;2022-10-16T10:47:44;2.60;;;0.90;;
42000;SDS011;27689;48.390;10.856;2022-10-16T10:50:39;1.30;;;0.80;;
42000;SDS011;27689;48.390;10.856;2022-10-16T10:56:47;2.08;;;0.77;;
42000;SDS011;27689;48.390;10.856;2022-10-16T11:08:34;2.65;;;0.80;;
42000;SDS011;27689;48.390;10.856;2022-10-16T11:11:29;1.50;;;0.70;;
42000;SDS011;27689;48.390;10.856;2022-10-16T11:14:54;0.90;;;0.75;;
42000;SDS011;27689;48.390;10.856;2022-10-16T11:17:48;2.85;;;0.85;;
42000;SDS011;27689;48.390;10.856;2022-10-16T11:20:40;3.47;;;0.60;;
42000;SDS011;27689;48.390;10.856;2022-10-16T11:23:39;1.15;;;0.80;;
42000;SDS011;27689;48.390;10.856;2022-10-16T11:26:32;2.17;;;0.75;;
42000;SDS011;27689;48.390;10.856;2022-10-16T11:29:21;4.88;;;1.00;;
42000;SDS011;27689;48.390;10.856;2022-10-16T11:32:14;1.38;;;0.77;;
42000;SDS011;27689;48.390;10.856;2022-10-16T11:38:52;2.10;;;0.80;;
42000;SDS011;27689;48.390;10.856;2022-10-16T11:41:53;1.80;;;0.77;;
42000;SDS011;27689;48.390;10.856;2022-10-16T11:47:44;2.38;;;0.90;;
42000;SDS011;27689;48.390;10.856;2022-10-16T11:50:52;1.35;;;0.80;;
42000;SDS011;27689;48.390;10.856;2022-10-16T11:53:56;0.98;;;0.70;;
42000;SDS011;27689;48.390;10.856;2022-10-16T11:57:02;1.20;;;0.90;;
42000;SDS011;27689;48.390;10.856;2022-10-16T11:59:57;2.50;;;0.83;;
42000;SDS011;27689;48.390;10.856;2022-10-16T12:02:49;2.55;;;1.10;;
42000;SDS011;27689;48.390;10.856;2022-10-16T12:08:40;1.67;;;0.80;;
42000;SDS011;27689;48.390;10.856;2022-10-16T12:17:00;2.95;;;0.98;;
42000;SDS011;27689;48.390;10.856;2022-10-16T12:20:17;1.75;;;0.90;;
42000;SDS011;27689;48.390;10.856;2022-10-16T12:23:05;2.22;;;0.68;;
42000;SDS011;27689;48.390;10.856;2022-10-16T12:25:57;1.08;;;0.80;;
42000;SDS011;27689;48.390;10.856;2022-10-16T12:28:42;1.55;;;0.70;;
42000;SDS011;27689;48.390;10.856;2022-10-16T12:31:36;2.58;;;0.80;;
42000;SDS011;27689;48.390;10.856;2022-10-16T12:37:40;2.83;;;0.65;;
42000;SDS011;27689;48.390;10.856;2022-10-16T12:43:26;1.48;;;0.60;;
42000;SDS011;27689;48.390;10.856;2022-10-16T12:46:21;0.95;;;0.70;;
42000;SDS011;27689;48.390;10.856;2022-10-16T12:49:53;1.35;;;0.68;;
42000;SDS011;27689;48.390;10.856;2022-10-16T12:55:18;1.10;;;0.57;;
42000;SDS011;27689;48.390;10.856;2022-10-16T13:13:59;1.27;;;0.60;;
42000;SDS011;27689;48.390;10.856;2022-10-16T13:17:24;3.97;;;1.13;;
42000;SDS011;27689;48.390;10.856;2022-10-16T13:20:25;2.35;;;0.80;;
42000;SDS011;27689;48.390;10.856;2022-10-16T13:23:17;1.70;;;0.63;;
42000;SDS011;27689;48.390;10.856;2022-10-16T13:29:01;2.03;;;0.50;;
42000;SDS011;27689;48.390;10.856;2022-10-16T13:31:45;1.40;;;0.70;;
42000;SDS011;27689;48.390;10.856;2022-10-16T13:34:29;2.07;;;0.77;;
42000;SDS011;27689;48.390;10.856;2022-10-16T13:37:17;2.25;;;0.80;;
42000;SDS011;27689;48.390;10.856;2022-10-16T13:40:09;2.58;;;0.77;;
42000;SDS011;27689;48.390;10.856;2022-10-16T13:43:02;0.95;;;0.80;;
42000;SDS011;27689;48.390;10.856;2022-10-16T13:45:53;2.10;;;1.07;;
42000;SDS011;27689;48.390;10.856;2022-10-16T13:48:58;1.50;;;0.77;;
42000;SDS011;27689;48.390;10.856;2022-10-16T13:51:55;1.67;;;0.63;;
42000;SDS011;27689;48.390;10.856;2022-10-16T13:54:42;1.90;;;0.50;;
42000;SDS011;27689;48.390;10.856;2022-10-16T13:57:26;1.55;;;0.73;;
42000;SDS011;27689;48.390;10.856;2022-10-16T14:00:23;2.92;;;0.88;;
42000;SDS011;27689;48.390;10.856;2022-10-16T14:03:13;1.38;;;0.80;;
42000;SDS011;27689;48.390;10.856;2022-10-16T14:06:00;1.17;;;0.70;;
42000;SDS011;27689;48.390;10.856;2022-10-16T14:08:47;0.70;;;0.70;;
42000;SDS011;27689;48.390;10.856;2022-10-16T14:11:44;0.73;;;0.52;;
42000;SDS011;27689;48.390;10.856;2022-10-16T14:14:48;1.27;;;0.85;;
42000;SDS011;27689;48.390;10.856;2022-10-16T14:17:35;2.45;;;0.60;;
42000;SDS011;27689;48.390;10.856;2022-10-16T14:20:20;3.77;;;0.97;;
42000;SDS011;27689;48.390;10.856;2022-10-16T14:23:29;1.27;;;0.80;;
42000;SDS011;27689;48.390;10.856;2022-10-16T14:26:17;1.95;;;0.85;;
42000;SDS011;27689;48.390;10.856;2022-10-16T14:29:08;1.27;;;0.90;;
42000;SDS011;27689;48.390;10.856;2022-10-16T14:32:03;1.60;;;0.80;;
42000;SDS011;27689;48.390;10.856;2022-10-16T14:38:27;3.90;;;0.85;;
42000;SDS011;27689;48.390;10.856;2022-10-16T14:41:12;1.17;;;0.85;;
42000;SDS011;27689;48.390;10.856;2022-10-16T14:43:57;2.97;;;1.37;;
42000;SDS011;27689;48.390;10.856;2022-10-16T14:46:46;3.13;;;1.10;;
42000;SDS011;27689;48.390;10.856;2022-10-16T14:49:30;1.83;;;1.13;;
42000;SDS011;27689;48.390;10.856;2022-10-16T14:54:59;1.83;;;1.00;;
42000;SDS011;27689;48.390;10.856;2022-10-16T14:57:43;2.35;;;1.10;;
42000;SDS011;27689;48.390;10.856;2022-10-16T15:00:28;2.67;;;0.80;;
42000;SDS011;27689;48.390;10.856;2022-10-16T15:03:12;4.18;;;1.00;;
42000;SDS011;27689;48.390;10.856;2022-10-16T15:05:58;2.60;;;1.00;;
42000;SDS011;27689;48.390;10.856;2022-10-16T15:11:26;1.30;;;0.80;;
42000;SDS011;27689;48.390;10.856;2022-10-16T15:14:11;8.75;;;6.00;;
42000;SDS011;27689;48.390;10.856;2022-10-16T15:16:56;5.25;;;4.47;;
42000;SDS011;27689;48.390;10.856;2022-10-16T15:19:40;2.07;;;1.60;;
42000;SDS011;27689;48.390;10.856;2022-10-16T15:22:24;2.30;;;1.70;;
42000;SDS011;27689;48.390;10.856;2022-10-16T15:28:15;2.25;;;1.30;;
42000;SDS011;27689;48.390;10.856;2022-10-16T15:31:00;3.88;;;1.20;;
42000;SDS011;27689;48.390;10.856;2022-10-16T15:33:44;1.60;;;1.10;;
42000;SDS011;27689;48.390;10.856;2022-10-16T15:36:35;2.90;;;1.30;;
42000;SDS011;27689;48.390;10.856;2022-10-16T15:39:21;1.65;;;1.30;;
42000;SDS011;27689;48.390;10.856;2022-10-16T15:42:05;2.08;;;1.10;;
42000;SDS011;27689;48.390;10.856;2022-10-16T15:44:50;5.00;;;1.50;;
42000;SDS011;27689;48.390;10.856;2022-10-16T15:47:34;2.42;;;1.30;;
42000;SDS011;27689;48.390;10.856;2022-10-16T15:50:18;1.95;;;1.33;;
42000;SDS011;27689;48.390;10.856;2022-10-16T15:53:02;4.90;;;1.50;;
42000;SDS011;27689;48.390;10.856;2022-10-16T15:55:46;2.90;;;1.48;;
42000;SDS011;27689;48.390;10.856;2022-10-16T15:58:31;3.08;;;1.73;;
42000;SDS011;27689;48.390;10.856;2022-10-16T16:01:15;4.80;;;1.80;;
42000;SDS011;27689;48.390;10.856;2022-10-16T16:04:00;3.80;;;2.05;;
42000;SDS011;27689;48.390;10.856;2022-10-16T16:06:44;2.65;;;1.88;;
42000;SDS011;27689;48.390;10.856;2022-10-16T16:09:28;2.28;;;1.70;;
42000;SDS011;27689;48.390;10.856;2022-10-16T16:12:12;5.63;;;1.92;;
42000;SDS011;27689;48.390;10.856;2022-10-16T16:14:56;2.75;;;1.65;;
42000;SDS011;27689;48.390;10.856;2022-10-16T16:17:41;6.13;;;2.00;;
42000;SDS011;27689;48.390;10.856;2022-10-16T16:20:24;4.22;;;1.60;;
42000;SDS011;27689;48.390;10.856;2022-10-16T16:23:08;3.50;;;1.88;;
42000;SDS011;27689;48.390;10.856;2022-10-16T16:26:02;5.80;;;2.00;;
42000;SDS011;27689;48.390;10.856;2022-10-16T16:29:13;5.28;;;2.17;;
42000;SDS011;27689;48.390;10.856;2022-10-16T16:31:58;6.65;;;3.05;;
42000;SDS011;27689;48.390;10.856;2022-10-16T16:34:43;4.45;;;2.90;;
42000;SDS011;27689;48.390;10.856;2022-10-16T16:37:27;6.50;;;3.33;;
42000;SDS011;27689;48.390;10.856;2022-10-16T16:40:11;5.18;;;3.28;;
42000;SDS011;27689;48.390;10.856;2022-10-16T16:42:55;5.32;;;3.05;;
42000;SDS011;27689;48.390;10.856;2022-10-16T16:45:39;6.30;;;2.90;;
42000;SDS011;27689;48.390;10.856;2022-10-16T16:48:23;9.25;;;3.30;;
42000;SDS011;27689;48.390;10.856;2022-10-16T16:51:08;7.40;;;3.42;;
42000;SDS011;27689;48.390;10.856;2022-10-16T16:54:00;11.77;;;3.90;;
42000;SDS011;27689;48.390;10.856;2022-10-16T16:56:44;15.38;;;6.10;;
42000;SDS011;27689;48.390;10.856;2022-10-16T16:59:29;15.18;;;8.73;;
42000;SDS011;27689;48.390;10.856;2022-10-16T17:02:16;24.48;;;13.10;;
42000;SDS011;27689;48.390;10.856;2022-10-16T17:05:00;22.67;;;12.87;;
42000;SDS011;27689;48.390;10.856;2022-10-16T17:07:44;18.67;;;10.05;;
42000;SDS011;27689;48.390;10.856;2022-10-16T17:10:28;16.10;;;8.35;;
42000;SDS011;27689;48.390;10.856;2022-10-16T17:13:12;12.18;;;7.22;;
42000;SDS011;27689;48.390;10.856;2022-10-16T17:15:56;11.30;;;6.57;;
42000;SDS011;27689;48.390;10.856;2022-10-16T17:18:40;11.47;;;6.33;;
42000;SDS011;27689;48.390;10.856;2022-10-16T17:24:10;10.63;;;4.57;;
42000;SDS011;27689;48.390;10.856;2022-10-16T17:26:54;5.93;;;3.53;;
42000;SDS011;27689;48.390;10.856;2022-10-16T17:29:38;6.38;;;3.35;;
42000;SDS011;27689;48.390;10.856;2022-10-16T17:32:22;4.28;;;3.08;;
42000;SDS011;27689;48.390;10.856;2022-10-16T17:35:06;5.10;;;3.13;;
42000;SDS011;27689;48.390;10.856;2022-10-16T17:37:51;6.47;;;3.80;;
42000;SDS011;27689;48.390;10.856;2022-10-16T17:40:35;4.72;;;3.00;;
42000;SDS011;27689;48.390;10.856;2022-10-16T17:43:20;5.47;;;2.75;;
42000;SDS011;27689;48.390;10.856;2022-10-16T17:46:04;6.60;;;3.05;;
42000;SDS011;27689;48.390;10.856;2022-10-16T17:48:50;5.68;;;3.22;;
42000;SDS011;27689;48.390;10.856;2022-10-16T17:51:38;5.38;;;3.08;;
42000;SDS011;27689;48.390;10.856;2022-10-16T17:54:22;4.93;;;3.53;;
42000;SDS011;27689;48.390;10.856;2022-10-16T17:57:06;4.63;;;3.17;;
42000;SDS011;27689;48.390;10.856;2022-10-16T17:59:50;6.15;;;3.15;;
42000;SDS011;27689;48.390;10.856;2022-10-16T18:02:34;4.45;;;3.45;;
42000;SDS011;27689;48.390;10.856;2022-10-16T18:05:18;5.50;;;3.10;;
42000;SDS011;27689;48.390;10.856;2022-10-16T18:08:02;6.10;;;3.65;;
42000;SDS011;27689;48.390;10.856;2022-10-16T18:10:47;4.93;;;3.45;;
42000;SDS011;27689;48.390;10.856;2022-10-16T18:13:32;7.22;;;3.45;;
42000;SDS011;27689;48.390;10.856;2022-10-16T18:16:16;5.03;;;3.17;;
42000;SDS011;27689;48.390;10.856;2022-10-16T18:19:00;6.60;;;3.20;;
42000;SDS011;27689;48.390;10.856;2022-10-16T18:21:44;5.50;;;3.80;;
42000;SDS011;27689;48.390;10.856;2022-10-16T18:24:29;6.97;;;3.15;;
42000;SDS011;27689;48.390;10.856;2022-10-16T18:27:13;4.22;;;3.15;;
42000;SDS011;27689;48.390;10.856;2022-10-16T18:29:57;4.47;;;3.22;;
42000;SDS011;27689;48.390;10.856;2022-10-16T18:32:42;3.85;;;3.30;;
42000;SDS011;27689;48.390;10.856;2022-10-16T18:35:26;5.40;;;3.00;;
42000;SDS011;27689;48.390;10.856;2022-10-16T18:38:10;5.28;;;3.22;;
42000;SDS011;27689;48.390;10.856;2022-10-16T18:40:54;4.80;;;2.90;;
42000;SDS011;27689;48.390;10.856;2022-10-16T18:43:38;5.75;;;2.75;;
42000;SDS011;27689;48.390;10.856;2022-10-16T18:46:22;4.68;;;3.00;;
42000;SDS011;27689;48.390;10.856;2022-10-16T18:49:07;4.28;;;3.03;;